createdAt,value
2023-04-02T00:00:29.910Z,73.09
2023-04-02T00:02:34.020Z,73.25
2023-04-02T00:04:38.093Z,73.55
2023-04-02T00:06:44.898Z,73.58
2023-04-02T00:08:48.898Z,73.63
2023-04-02T00:10:53.805Z,72.96
2023-04-02T00:13:01.758Z,72.76
2023-04-02T00:15:07.509Z,73.00
2023-04-02T00:17:10.612Z,72.49
2023-04-02T00:19:17.803Z,73.02
2023-04-02T00:21:23.823Z,72.93
2023-04-02T00:23:27.614Z,73.49
2023-04-02T00:25:35.284Z,73.98
2023-04-02T00:27:38.276Z,73.28
2023-04-02T00:29:47.493Z,73.86
2023-04-02T00:31:55.527Z,74.37
2023-04-02T00:34:00.529Z,74.14
2023-04-02T00:36:07.806Z,74.05
2023-04-02T00:38:20.977Z,74.53
2023-04-02T00:40:27.249Z,74.78
2023-04-02T00:42:32.120Z,74.36
2023-04-02T00:44:37.875Z,75.12
2023-04-02T00:46:46.700Z,75.01
2023-04-02T00:48:55.412Z,74.29
2023-04-02T00:51:02.136Z,74.48
2023-04-02T00:53:11.564Z,74.62
2023-04-02T00:55:18.405Z,74.88
2023-04-02T00:57:25.525Z,74.81
2023-04-02T00:59:31.768Z,74.48
2023-04-02T01:01:42.539Z,73.70
2023-04-02T01:03:59.051Z,73.59
2023-04-02T01:06:10.742Z,73.91
2023-04-02T01:08:21.750Z,73.42
2023-04-02T01:10:40.316Z,73.85
2023-04-02T01:12:56.727Z,73.93
2023-04-02T01:15:09.811Z,73.91
2023-04-02T01:17:26.362Z,73.57
2023-04-02T01:20:07.067Z,73.81
2023-04-02T01:22:15.660Z,74.46
2023-04-02T01:24:20.291Z,74.01
2023-04-02T01:26:41.873Z,73.82
2023-04-02T01:29:01.355Z,74.10
2023-04-02T01:31:05.657Z,74.26
2023-04-02T01:33:08.681Z,74.79
2023-04-02T01:35:12.107Z,73.84
2023-04-02T01:37:27.399Z,73.63
2023-04-02T01:39:35.913Z,74.33
2023-04-02T01:41:47.376Z,74.37
2023-04-02T01:43:57.124Z,73.82
2023-04-02T01:46:00.680Z,73.89
2023-04-02T01:48:07.206Z,73.92
2023-04-02T01:50:23.455Z,73.46
2023-04-02T01:52:37.891Z,73.71
2023-04-02T01:54:42.596Z,72.89
2023-04-02T01:56:47.183Z,73.12
2023-04-02T01:58:51.446Z,74.31
2023-04-02T02:00:59.471Z,73.83
2023-04-02T02:03:03.447Z,74.01
2023-04-02T02:05:07.499Z,73.56
2023-04-02T02:07:15.989Z,74.32
2023-04-02T02:09:24.828Z,73.67
2023-04-02T02:11:30.557Z,74.73
2023-04-02T02:13:33.495Z,74.28
2023-04-02T02:15:37.810Z,74.60
2023-04-02T02:17:40.739Z,74.62
2023-04-02T02:19:46.465Z,75.03
2023-04-02T02:21:52.488Z,74.50
2023-04-02T02:23:56.625Z,74.44
2023-04-02T02:25:59.777Z,74.21
2023-04-02T02:28:07.535Z,74.18
2023-04-02T02:30:15.430Z,74.00
2023-04-02T02:32:22.353Z,73.98
2023-04-02T02:34:34.954Z,74.22
2023-04-02T02:36:45.819Z,74.72
2023-04-02T02:38:55.563Z,74.02
2023-04-02T02:41:14.332Z,74.92
2023-04-02T02:43:20.089Z,75.20
2023-04-02T02:45:28.792Z,73.92
2023-04-02T02:47:36.238Z,74.26
2023-04-02T02:49:44.185Z,74.65
2023-04-02T02:51:50.762Z,74.59
2023-04-02T02:54:04.593Z,74.45
2023-04-02T02:56:09.844Z,74.75
2023-04-02T02:58:19.267Z,73.74
2023-04-02T03:00:36.965Z,74.55
2023-04-02T03:02:43.394Z,73.59
2023-04-02T03:04:49.289Z,73.99
2023-04-02T03:06:54.297Z,73.97
2023-04-02T03:09:05.804Z,74.31
2023-04-02T03:11:15.257Z,73.86
2023-04-02T03:13:23.233Z,73.80
2023-04-02T03:15:35.462Z,74.03
2023-04-02T03:17:45.419Z,75.09
2023-04-02T03:19:55.607Z,73.84
2023-04-02T03:22:04.809Z,73.87
2023-04-02T03:24:16.023Z,74.61
2023-04-02T03:26:23.860Z,74.41
2023-04-02T03:28:31.619Z,74.33
2023-04-02T03:30:41.489Z,74.61
2023-04-02T03:32:49.714Z,74.60
2023-04-02T03:34:57.797Z,74.77
2023-04-02T03:37:06.477Z,75.05
2023-04-02T03:39:15.939Z,75.33
2023-04-02T03:41:34.887Z,75.31
2023-04-02T03:43:41.897Z,75.12
2023-04-02T03:45:51.196Z,74.62
2023-04-02T03:48:00.264Z,75.25
2023-04-02T03:50:08.114Z,75.15
2023-04-02T03:52:14.448Z,74.78
2023-04-02T03:54:18.652Z,74.88
2023-04-02T03:56:28.975Z,74.46
2023-04-02T03:58:39.195Z,75.01
2023-04-02T04:00:49.845Z,74.06
2023-04-02T04:02:57.425Z,73.95
2023-04-02T04:05:01.153Z,74.21
2023-04-02T04:07:04.594Z,74.56
2023-04-02T04:09:11.994Z,74.35
2023-04-02T04:11:17.947Z,74.73
2023-04-02T04:13:26.529Z,74.82
2023-04-02T04:15:36.465Z,74.72
2023-04-02T04:17:53.827Z,74.52
2023-04-02T04:20:17.149Z,74.27
2023-04-02T04:22:30.479Z,74.70
2023-04-02T04:24:39.814Z,74.13
2023-04-02T04:26:49.532Z,75.20
2023-04-02T04:29:05.423Z,74.32
2023-04-02T04:31:20.956Z,74.66
2023-04-02T04:33:29.051Z,74.10
2023-04-02T04:35:40.319Z,74.61
2023-04-02T04:37:53.605Z,74.27
2023-04-02T04:40:00.180Z,74.40
2023-04-02T04:42:06.373Z,75.17
2023-04-02T04:44:18.141Z,74.44
2023-04-02T04:46:29.333Z,74.99
2023-04-02T04:48:37.721Z,74.66
2023-04-02T04:50:50.172Z,74.32
2023-04-02T04:52:53.528Z,74.89
2023-04-02T04:54:56.907Z,74.33
2023-04-02T04:57:04.816Z,74.17
2023-04-02T04:59:18.815Z,73.80
2023-04-02T05:01:28.330Z,73.78
2023-04-02T05:03:36.481Z,74.42
2023-04-02T05:05:43.759Z,73.78
2023-04-02T05:07:52.060Z,74.01
2023-04-02T05:10:00.773Z,74.40
2023-04-02T05:12:13.311Z,73.95
2023-04-02T05:14:24.772Z,74.24
2023-04-02T05:16:37.781Z,74.00
2023-04-02T05:18:44.568Z,74.15
2023-04-02T05:20:55.872Z,74.34
2023-04-02T05:23:05.077Z,74.20
2023-04-02T05:25:16.695Z,74.44
2023-04-02T05:27:29.612Z,74.21
2023-04-02T05:29:37.917Z,74.29
2023-04-02T05:31:46.482Z,74.66
2023-04-02T05:33:50.750Z,73.87
2023-04-02T05:36:00.793Z,74.32
2023-04-02T05:38:06.590Z,74.40
2023-04-02T05:40:16.289Z,74.59
2023-04-02T05:42:24.907Z,74.85
2023-04-02T05:44:35.831Z,75.34
2023-04-02T05:46:47.760Z,75.14
2023-04-02T05:48:56.388Z,75.41
2023-04-02T05:51:02.004Z,74.96
2023-04-02T05:53:12.149Z,75.45
2023-04-02T05:55:30.498Z,75.39
2023-04-02T05:57:46.821Z,74.59
2023-04-02T06:00:01.117Z,74.29
2023-04-02T06:02:12.314Z,75.19
2023-04-02T06:04:22.411Z,75.64
2023-04-02T06:06:45.495Z,75.42
2023-04-02T06:08:57.717Z,75.17
2023-04-02T06:11:08.935Z,75.17
2023-04-02T06:13:18.523Z,75.40
2023-04-02T06:15:23.459Z,75.51
2023-04-02T06:17:34.744Z,75.78
2023-04-02T06:19:39.347Z,75.90
2023-04-02T06:21:46.248Z,76.63
2023-04-02T06:23:54.989Z,76.31
2023-04-02T06:26:04.372Z,76.46
2023-04-02T06:28:15.333Z,75.85
2023-04-02T06:30:29.355Z,76.11
2023-04-02T06:32:32.796Z,75.64
2023-04-02T06:34:39.112Z,76.26
2023-04-02T06:36:47.400Z,75.73
2023-04-02T06:38:51.858Z,76.05
2023-04-02T06:40:59.096Z,75.96
2023-04-02T06:43:33.211Z,76.12
2023-04-02T06:45:52.787Z,76.54
2023-04-02T06:48:17.533Z,76.50
2023-04-02T06:50:26.513Z,75.98
2023-04-02T06:52:35.757Z,76.21
2023-04-02T06:54:39.852Z,75.73
2023-04-02T06:56:47.359Z,75.60
2023-04-02T06:58:55.985Z,75.73
2023-04-02T07:01:00.000Z,75.63
2023-04-02T07:03:28.085Z,75.49
2023-04-02T07:05:58.215Z,75.02
2023-04-02T07:08:02.482Z,74.83
2023-04-02T07:10:06.872Z,74.73
2023-04-02T07:12:12.947Z,74.92
2023-04-02T07:14:16.528Z,74.59
2023-04-02T07:16:22.013Z,73.81
2023-04-02T07:18:27.737Z,74.71
2023-04-02T07:20:33.554Z,74.30
2023-04-02T07:22:41.001Z,74.86
2023-04-02T07:24:45.499Z,74.89
2023-04-02T07:26:48.673Z,74.48
2023-04-02T07:28:51.512Z,74.04
2023-04-02T07:30:55.582Z,73.86
2023-04-02T07:32:58.439Z,74.08
2023-04-02T07:35:01.394Z,74.16
2023-04-02T07:37:04.706Z,73.91
2023-04-02T07:39:07.496Z,74.17
2023-04-02T07:41:12.892Z,74.22
2023-04-02T07:43:15.804Z,74.16
2023-04-02T07:45:18.674Z,73.51
2023-04-02T07:47:21.431Z,73.20
2023-04-02T07:49:24.354Z,73.29
2023-04-02T07:51:27.261Z,72.90
2023-04-02T07:53:32.825Z,73.39
2023-04-02T07:55:36.308Z,72.65
2023-04-02T07:57:44.942Z,72.72
2023-04-02T07:59:49.257Z,73.82
2023-04-02T08:01:53.571Z,73.93
2023-04-02T08:03:57.827Z,73.66
2023-04-02T08:06:00.720Z,73.81
2023-04-02T08:08:03.716Z,73.03
2023-04-02T08:10:08.511Z,73.07
2023-04-02T08:12:13.749Z,72.43
2023-04-02T08:14:17.866Z,73.01
2023-04-02T08:16:20.739Z,73.29
2023-04-02T08:18:24.209Z,73.21
2023-04-02T08:20:27.346Z,72.39
2023-04-02T08:22:30.505Z,72.34
2023-04-02T08:24:33.377Z,71.89
2023-04-02T08:26:36.432Z,72.19
2023-04-02T08:28:39.218Z,72.21
2023-04-02T08:30:43.565Z,71.02
2023-04-02T08:32:46.773Z,71.77
2023-04-02T08:34:49.576Z,71.74
2023-04-02T08:36:56.468Z,70.95
2023-04-02T08:38:59.349Z,71.13
2023-04-02T08:41:05.625Z,70.68
2023-04-02T08:43:24.442Z,71.68
2023-04-02T08:45:40.192Z,71.73
2023-04-02T08:47:47.152Z,71.58
2023-04-02T08:49:55.697Z,71.88
2023-04-02T08:51:58.641Z,71.03
2023-04-02T08:54:08.772Z,70.65
2023-04-02T08:56:19.303Z,70.46
2023-04-02T08:58:33.497Z,70.93
2023-04-02T09:00:40.188Z,69.46
2023-04-02T09:02:48.323Z,69.51
2023-04-02T09:04:51.779Z,70.21
2023-04-02T09:06:57.211Z,70.41
2023-04-02T09:09:01.167Z,69.44
2023-04-02T09:11:08.866Z,69.99
2023-04-02T09:13:18.926Z,69.83
2023-04-02T09:15:29.383Z,69.57
2023-04-02T09:17:42.773Z,69.74
2023-04-02T09:19:56.911Z,69.68
2023-04-02T09:22:08.891Z,69.13
2023-04-02T09:24:13.280Z,69.53
2023-04-02T09:26:23.535Z,69.23
2023-04-02T09:28:27.074Z,69.44
2023-04-02T09:30:43.749Z,68.37
2023-04-02T09:32:51.076Z,68.36
2023-04-02T09:35:14.983Z,68.03
2023-04-02T09:37:25.390Z,67.84
2023-04-02T09:39:28.152Z,67.29
2023-04-02T09:41:32.088Z,67.47
2023-04-02T09:43:37.022Z,67.83
2023-04-02T09:45:42.076Z,68.23
2023-04-02T09:47:44.894Z,68.42
2023-04-02T09:49:47.729Z,68.88
2023-04-02T09:52:22.199Z,68.66
2023-04-02T09:54:26.716Z,68.18
2023-04-02T09:56:30.555Z,68.11
2023-04-02T09:58:33.346Z,67.62
2023-04-02T10:00:36.481Z,67.12
2023-04-02T10:02:39.692Z,66.44
2023-04-02T10:04:45.123Z,66.98
2023-04-02T10:06:56.258Z,67.27
2023-04-02T10:09:21.266Z,66.79
2023-04-02T10:11:36.606Z,66.52
2023-04-02T10:13:50.392Z,66.03
2023-04-02T10:16:00.905Z,66.41
2023-04-02T10:18:11.587Z,66.03
2023-04-02T10:20:21.077Z,66.06
2023-04-02T10:22:24.714Z,65.79
2023-04-02T10:24:29.802Z,65.76
2023-04-02T10:26:52.725Z,65.81
2023-04-02T10:29:08.210Z,66.26
2023-04-02T10:31:22.578Z,66.79
2023-04-02T10:33:31.369Z,67.89
2023-04-02T10:35:42.733Z,69.22
2023-04-02T10:37:57.498Z,69.18
2023-04-02T10:40:09.859Z,69.28
2023-04-02T10:42:21.384Z,69.10
2023-04-02T10:44:37.459Z,70.04
2023-04-02T10:46:50.437Z,70.89
2023-04-02T10:49:05.339Z,72.09
2023-04-02T10:51:15.049Z,71.50
2023-04-02T10:53:20.425Z,71.78
2023-04-02T10:55:30.663Z,72.36
2023-04-02T10:57:39.284Z,72.14
2023-04-02T10:59:46.362Z,72.98
2023-04-02T11:01:52.075Z,73.33
2023-04-02T11:04:00.209Z,72.45
2023-04-02T11:06:12.078Z,72.77
2023-04-02T11:08:19.321Z,73.24
2023-04-02T11:10:24.552Z,73.40
2023-04-02T11:12:44.020Z,73.47
2023-04-02T11:14:46.987Z,73.54
2023-04-02T11:16:51.051Z,73.75
2023-04-02T11:19:11.178Z,74.28
2023-04-02T11:21:55.152Z,73.66
2023-04-02T11:24:02.445Z,73.92
2023-04-02T11:26:23.797Z,73.45
2023-04-02T11:28:30.493Z,73.80
2023-04-02T11:30:33.751Z,73.50
2023-04-02T11:32:39.387Z,73.51
2023-04-02T11:35:07.034Z,74.03
2023-04-02T11:37:11.784Z,73.22
2023-04-02T11:39:17.427Z,72.90
2023-04-02T11:41:58.126Z,73.48
2023-04-02T11:44:02.689Z,73.42
2023-04-02T11:46:07.027Z,73.42
2023-04-02T11:48:30.654Z,73.36
2023-04-02T11:50:35.807Z,73.48
2023-04-02T11:52:52.973Z,73.78
2023-04-02T11:54:59.151Z,73.36
2023-04-02T11:57:11.701Z,73.11
2023-04-02T11:59:23.998Z,73.54
2023-04-02T12:01:57.666Z,73.30
2023-04-02T12:04:25.212Z,74.03
2023-04-02T12:06:42.542Z,73.23
2023-04-02T12:08:58.258Z,72.77
2023-04-02T12:11:03.382Z,73.51
2023-04-02T12:13:06.436Z,73.75
2023-04-02T12:15:32.946Z,74.06
2023-04-02T12:17:38.002Z,73.69
2023-04-02T12:19:41.035Z,73.85
2023-04-02T12:21:47.302Z,73.78
2023-04-02T12:23:54.018Z,74.58
2023-04-02T12:26:01.222Z,75.12
2023-04-02T12:28:06.383Z,75.19
2023-04-02T12:30:17.829Z,74.46
2023-04-02T12:32:27.202Z,74.50
2023-04-02T12:34:31.997Z,74.86
2023-04-02T12:36:36.174Z,75.16
2023-04-02T12:38:46.759Z,74.43
2023-04-02T12:40:53.825Z,75.36
2023-04-02T12:42:56.732Z,75.81
2023-04-02T12:45:00.412Z,74.30
2023-04-02T12:47:06.064Z,73.32
2023-04-02T12:49:14.916Z,74.26
2023-04-02T12:51:17.855Z,74.14
2023-04-02T12:53:23.449Z,73.68
2023-04-02T12:55:28.010Z,73.66
2023-04-02T12:57:39.785Z,73.34
2023-04-02T12:59:44.602Z,73.49
2023-04-02T13:01:56.634Z,72.98
2023-04-02T13:04:08.284Z,73.07
2023-04-02T13:06:23.372Z,73.07
2023-04-02T13:08:29.462Z,72.26
2023-04-02T13:10:32.654Z,71.57
2023-04-02T13:12:38.507Z,71.21
2023-04-02T13:14:41.806Z,70.64
2023-04-02T13:16:48.658Z,70.30
2023-04-02T13:18:52.062Z,70.48
2023-04-02T13:21:00.349Z,71.33
2023-04-02T13:23:32.335Z,71.86
2023-04-02T13:25:37.643Z,71.59
2023-04-02T13:27:40.450Z,71.02
2023-04-02T13:29:43.265Z,71.01
2023-04-02T13:31:47.473Z,70.11
2023-04-02T13:33:50.381Z,70.64
2023-04-02T13:35:53.216Z,70.23
2023-04-02T13:37:57.764Z,70.70
2023-04-02T13:40:00.690Z,70.71
2023-04-02T13:42:06.582Z,70.71
2023-04-02T13:44:19.639Z,70.23
2023-04-02T13:46:24.076Z,68.84
2023-04-02T13:48:28.757Z,68.40
2023-04-02T13:50:33.329Z,67.92
2023-04-02T13:52:36.332Z,68.74
2023-04-02T13:54:46.762Z,67.25
2023-04-02T13:56:49.665Z,66.41
2023-04-02T13:58:52.834Z,65.19
2023-04-02T14:00:56.094Z,67.21
2023-04-02T14:03:05.654Z,66.95
2023-04-02T14:05:18.751Z,67.31
2023-04-02T14:07:33.086Z,68.39
2023-04-02T14:09:52.991Z,68.22
2023-04-02T14:12:02.191Z,68.39
2023-04-02T14:14:20.514Z,68.08
2023-04-02T14:16:45.814Z,69.00
2023-04-02T14:19:06.395Z,68.23
2023-04-02T14:21:19.546Z,68.65
2023-04-02T14:23:37.543Z,68.32
2023-04-02T14:25:48.558Z,68.69
2023-04-02T14:28:02.883Z,68.75
2023-04-02T14:30:09.775Z,68.41
2023-04-02T14:32:19.572Z,67.86
2023-04-02T14:34:33.095Z,68.08
2023-04-02T14:36:47.485Z,68.26
2023-04-02T14:38:56.688Z,68.33
2023-04-02T14:41:09.311Z,68.75
2023-04-02T14:43:16.953Z,68.96
2023-04-02T14:45:32.028Z,67.76
2023-04-02T14:47:40.042Z,67.71
2023-04-02T14:49:46.809Z,67.29
2023-04-02T14:51:52.869Z,67.83
2023-04-02T14:54:02.861Z,67.97
2023-04-02T14:56:09.054Z,68.12
2023-04-02T14:58:19.838Z,68.07
2023-04-02T15:00:31.616Z,67.90
2023-04-02T15:02:42.273Z,68.34
2023-04-02T15:05:01.559Z,68.02
2023-04-02T15:07:14.801Z,67.88
2023-04-02T15:09:23.602Z,67.58
2023-04-02T15:11:34.383Z,66.86
2023-04-02T15:13:39.466Z,67.85
2023-04-02T15:15:45.760Z,68.30
2023-04-02T15:17:48.618Z,67.84
2023-04-02T15:19:58.845Z,68.19
2023-04-02T15:22:14.756Z,68.24
2023-04-02T15:24:23.957Z,67.78
2023-04-02T15:26:34.649Z,67.35
2023-04-02T15:28:44.685Z,67.93
2023-04-02T15:30:53.787Z,67.67
2023-04-02T15:33:18.134Z,67.71
2023-04-02T15:35:31.540Z,67.77
2023-04-02T15:37:40.849Z,68.36
2023-04-02T15:40:01.660Z,68.31
2023-04-02T15:42:21.160Z,67.52
2023-04-02T15:44:24.069Z,67.86
2023-04-02T15:46:32.402Z,67.08
2023-04-02T15:48:57.296Z,67.50
2023-04-02T15:51:11.163Z,67.84
2023-04-02T15:53:29.201Z,67.87
2023-04-02T15:55:40.740Z,67.04
2023-04-02T15:58:06.400Z,67.73
2023-04-02T16:00:22.183Z,68.04
2023-04-02T16:02:52.731Z,67.20
2023-04-02T16:05:03.351Z,67.33
2023-04-02T16:07:36.708Z,66.88
2023-04-02T16:09:50.906Z,67.51
2023-04-02T16:12:00.563Z,66.98
2023-04-02T16:14:19.595Z,67.21
2023-04-02T16:16:27.875Z,67.59
2023-04-02T16:18:39.195Z,66.75
2023-04-02T16:20:47.268Z,66.00
2023-04-02T16:23:00.381Z,66.63
2023-04-02T16:25:14.497Z,66.55
2023-04-02T16:27:24.674Z,65.93
2023-04-02T16:29:53.795Z,66.51
2023-04-02T16:32:03.259Z,66.22
2023-04-02T16:34:15.938Z,66.01
2023-04-02T16:36:28.362Z,66.75
2023-04-02T16:38:50.053Z,66.67
2023-04-02T16:41:08.229Z,65.88
2023-04-02T16:43:23.021Z,65.98
2023-04-02T16:45:36.585Z,66.25
2023-04-02T16:47:56.065Z,65.65
2023-04-02T16:50:04.801Z,66.25
2023-04-02T16:52:20.248Z,66.50
2023-04-02T16:54:31.707Z,65.36
2023-04-02T16:56:49.576Z,65.66
2023-04-02T16:59:01.050Z,65.38
2023-04-02T17:01:11.884Z,66.09
2023-04-02T17:03:38.604Z,64.77
2023-04-02T17:05:52.858Z,65.38
2023-04-02T17:08:05.834Z,65.42
2023-04-02T17:10:21.308Z,64.71
2023-04-02T17:12:29.762Z,64.27
2023-04-02T17:14:39.980Z,63.85
2023-04-02T17:16:46.210Z,64.86
2023-04-02T17:18:50.547Z,64.46
2023-04-02T17:20:54.307Z,64.42
2023-04-02T17:23:05.929Z,64.86
2023-04-02T17:25:19.290Z,65.33
2023-04-02T17:27:29.674Z,64.63
2023-04-02T17:29:37.228Z,64.91
2023-04-02T17:31:41.977Z,64.70
2023-04-02T17:33:46.164Z,64.04
2023-04-02T17:36:02.614Z,63.96
2023-04-02T17:38:12.697Z,63.60
2023-04-02T17:40:26.190Z,64.28
2023-04-02T17:42:42.806Z,63.31
2023-04-02T17:44:57.209Z,64.07
2023-04-02T17:47:04.562Z,63.47
2023-04-02T17:49:22.792Z,63.54
2023-04-02T17:51:34.410Z,63.92
2023-04-02T17:53:54.736Z,63.72
2023-04-02T17:56:08.874Z,63.19
2023-04-02T17:58:26.671Z,63.35
2023-04-02T18:00:47.239Z,63.22
2023-04-02T18:03:06.371Z,63.38
2023-04-02T18:05:21.435Z,62.63
2023-04-02T18:07:36.708Z,62.65
2023-04-02T18:09:45.205Z,62.71
2023-04-02T18:11:56.492Z,63.29
2023-04-02T18:14:01.354Z,61.48
2023-04-02T18:16:18.847Z,61.65
2023-04-02T18:18:34.335Z,61.00
2023-04-02T18:20:44.706Z,61.02
2023-04-02T18:22:52.890Z,61.61
2023-04-02T18:25:20.761Z,61.32
2023-04-02T18:27:38.127Z,61.53
2023-04-02T18:29:48.218Z,61.20
2023-04-02T18:32:00.784Z,62.20
2023-04-02T18:34:21.632Z,61.60
2023-04-02T18:36:38.126Z,61.36
2023-04-02T18:38:47.344Z,60.46
2023-04-02T18:41:03.710Z,60.96
2023-04-02T18:43:17.088Z,60.71
2023-04-02T18:45:25.938Z,60.92
2023-04-02T18:47:36.194Z,60.10
2023-04-02T18:49:41.317Z,60.05
2023-04-02T18:51:45.889Z,60.29
2023-04-02T18:53:51.977Z,60.25
2023-04-02T18:55:58.200Z,59.87
2023-04-02T18:58:06.382Z,60.18
2023-04-02T19:00:22.968Z,62.31
2023-04-02T19:02:36.597Z,61.02
2023-04-02T19:04:41.148Z,59.66
2023-04-02T19:06:48.607Z,59.29
2023-04-02T19:08:55.985Z,59.10
2023-04-02T19:11:02.126Z,58.45
2023-04-02T19:13:09.072Z,59.49
2023-04-02T19:15:20.152Z,59.09
2023-04-02T19:17:30.978Z,58.64
2023-04-02T19:19:41.069Z,58.66
2023-04-02T19:22:03.879Z,59.89
2023-04-02T19:24:22.588Z,58.97
2023-04-02T19:26:31.520Z,59.27
2023-04-02T19:28:41.879Z,59.98
2023-04-02T19:31:00.205Z,60.20
2023-04-02T19:33:11.549Z,59.65
2023-04-02T19:35:23.813Z,59.42
2023-04-02T19:37:37.650Z,59.38
2023-04-02T19:40:15.257Z,59.31
2023-04-02T19:42:34.469Z,58.77
2023-04-02T19:44:46.695Z,59.77
2023-04-02T19:46:51.433Z,58.87
2023-04-02T19:49:03.155Z,59.26
2023-04-02T19:51:05.962Z,59.61
2023-04-02T19:53:10.477Z,57.92
2023-04-02T19:55:13.532Z,57.53
2023-04-02T19:57:16.885Z,55.64
2023-04-02T19:59:19.796Z,56.93
2023-04-02T20:01:23.247Z,54.88
2023-04-02T20:03:27.354Z,55.22
2023-04-02T20:05:30.092Z,55.13
2023-04-02T20:07:32.915Z,55.00
2023-04-02T20:09:37.082Z,55.87
2023-04-02T20:11:40.063Z,54.73
2023-04-02T20:13:42.938Z,54.98
2023-04-02T20:15:47.165Z,55.54
2023-04-02T20:17:50.144Z,53.32
2023-04-02T20:19:52.992Z,54.23
2023-04-02T20:21:56.251Z,54.63
2023-04-02T20:23:59.082Z,55.15
2023-04-02T20:26:04.544Z,54.00
2023-04-02T20:28:07.539Z,54.19
2023-04-02T20:30:10.908Z,53.56
2023-04-02T20:32:14.046Z,54.66
2023-04-02T20:34:17.031Z,54.10
2023-04-02T20:36:21.686Z,54.60
2023-04-02T20:38:24.453Z,54.18
2023-04-02T20:40:27.384Z,54.07
2023-04-02T20:42:32.281Z,54.66
2023-04-02T20:44:35.439Z,54.22
2023-04-02T20:46:38.484Z,54.67
2023-04-02T20:48:41.653Z,54.01
2023-04-02T20:50:46.120Z,54.57
2023-04-02T20:52:48.985Z,55.04
2023-04-02T20:54:52.994Z,54.04
2023-04-02T20:56:55.830Z,53.47
2023-04-02T20:59:00.066Z,54.25
2023-04-02T21:01:08.423Z,54.46
2023-04-02T21:03:11.781Z,54.70
2023-04-02T21:05:14.742Z,54.70
2023-04-02T21:07:17.542Z,54.03
2023-04-02T21:09:21.367Z,53.50
2023-04-02T21:11:24.553Z,54.17
2023-04-02T21:13:29.748Z,53.81
2023-04-02T21:15:34.624Z,53.65
2023-04-02T21:17:37.695Z,54.63
2023-04-02T21:19:40.641Z,53.98
2023-04-02T21:21:44.211Z,53.70
2023-04-02T21:23:47.052Z,54.68
2023-04-02T21:25:56.360Z,53.44
2023-04-02T21:27:59.417Z,52.97
2023-04-02T21:30:02.201Z,53.94
2023-04-02T21:32:17.939Z,53.84
2023-04-02T21:34:23.437Z,53.46
2023-04-02T21:36:28.684Z,52.90
2023-04-02T21:38:31.616Z,53.41
2023-04-02T21:40:34.407Z,52.91
2023-04-02T21:42:37.180Z,53.16
2023-04-02T21:44:40.070Z,53.05
2023-04-02T21:46:44.217Z,53.17
2023-04-02T21:48:49.753Z,52.44
2023-04-02T21:50:52.617Z,51.75
2023-04-02T21:52:55.560Z,52.27
2023-04-02T21:54:58.331Z,53.22
2023-04-02T21:57:01.188Z,53.63
2023-04-02T21:59:05.465Z,53.24
2023-04-02T22:01:14.004Z,52.88
2023-04-02T22:03:31.094Z,52.41
2023-04-02T22:05:35.955Z,52.87
2023-04-02T22:07:38.891Z,52.07
2023-04-02T22:09:41.643Z,53.03
2023-04-02T22:11:46.438Z,52.37
2023-04-02T22:13:50.299Z,51.23
2023-04-02T22:15:53.064Z,51.81
2023-04-02T22:17:55.958Z,51.06
2023-04-02T22:19:58.719Z,52.14
2023-04-02T22:22:03.036Z,50.43
2023-04-02T22:24:09.380Z,51.43
2023-04-02T22:26:16.148Z,51.67
2023-04-02T22:28:18.946Z,51.95
2023-04-02T22:30:21.724Z,51.66
2023-04-02T22:32:24.599Z,51.66
2023-04-02T22:34:27.432Z,51.51
2023-04-02T22:36:31.108Z,52.06
2023-04-02T22:38:35.603Z,51.71
2023-04-02T22:40:38.500Z,51.52
2023-04-02T22:42:41.261Z,52.41
2023-04-02T22:44:44.176Z,52.02
2023-04-02T22:46:46.963Z,52.09
2023-04-02T22:48:50.807Z,50.53
2023-04-02T22:50:53.792Z,51.56
2023-04-02T22:52:56.805Z,51.37
2023-04-02T22:55:00.907Z,51.54
2023-04-02T22:57:03.828Z,51.57
2023-04-02T22:59:06.709Z,51.76
2023-04-02T23:01:13.217Z,52.43
2023-04-02T23:03:16.165Z,52.10
2023-04-02T23:05:19.380Z,52.45
2023-04-02T23:07:22.235Z,52.78
2023-04-02T23:09:25.054Z,51.97
2023-04-02T23:11:29.428Z,52.32
2023-04-02T23:13:32.924Z,51.19
2023-04-02T23:15:35.703Z,49.90
2023-04-02T23:17:38.652Z,50.49
2023-04-02T23:19:41.456Z,50.40
2023-04-02T23:21:44.352Z,50.39
2023-04-02T23:23:48.149Z,50.99
2023-04-02T23:25:50.972Z,50.19
2023-04-02T23:27:55.594Z,50.39
2023-04-02T23:29:58.523Z,51.07
2023-04-02T23:32:01.340Z,51.81
2023-04-02T23:34:04.580Z,51.77
2023-04-02T23:36:08.502Z,51.36
2023-04-02T23:38:11.355Z,52.04
2023-04-02T23:40:14.165Z,51.39
2023-04-02T23:42:17.432Z,51.60
2023-04-02T23:44:21.554Z,52.19
2023-04-02T23:46:24.597Z,52.22
2023-04-02T23:48:27.431Z,52.33
2023-04-02T23:50:30.431Z,52.07
2023-04-02T23:52:33.271Z,52.59
2023-04-02T23:54:36.053Z,51.78
2023-04-02T23:56:39.106Z,52.21
2023-04-02T23:58:41.866Z,52.57
